Time;durP1;ratioP1;P1;durP2;ratioP2;P2;SDS_P1;SDS_P2;PMS_P1;PMS_P2;Temp;Humidity;BMP_temperature;BMP_pressure;BME280_temperature;BME280_humidity;BME280_pressure;Samples;Min_cycle;Max_cycle;Signal;HPM_P1;HPM_P2
2022/04/06 00:01:23;;;;;;;37.83;14.40;;;11.30;99.90;;;;;;5013376;28;20033;-50
2022/04/06 00:03:49;;;;;;;37.78;14.63;;;11.20;99.90;;;;;;5011330;28;20029;-48
2022/04/06 00:06:15;;;;;;;33.03;15.23;;;11.20;99.90;;;;;;5012368;28;20069;-51
2022/04/06 00:08:41;;;;;;;36.35;14.45;;;11.30;99.90;;;;;;5012927;28;20076;-45
2022/04/06 00:11:07;;;;;;;33.70;13.73;;;11.30;99.90;;;;;;5013170;28;20481;-47
2022/04/06 00:13:32;;;;;;;34.30;15.13;;;11.10;99.90;;;;;;5012652;28;20037;-47
2022/04/06 00:15:58;;;;;;;36.22;16.33;;;11.10;99.90;;;;;;5011271;28;20033;-48
2022/04/06 00:18:24;;;;;;;38.30;15.07;;;11.20;99.90;;;;;;5011748;28;20046;-48
2022/04/06 00:20:49;;;;;;;36.00;15.80;;;11.20;99.90;;;;;;5012659;28;20041;-49
2022/04/06 00:23:16;;;;;;;37.75;14.80;;;11.10;99.90;;;;;;5012937;28;20045;-48
2022/04/06 00:25:41;;;;;;;37.97;15.10;;;11.00;99.90;;;;;;5012798;28;20050;-47
2022/04/06 00:28:07;;;;;;;41.40;16.60;;;11.10;99.90;;;;;;5012714;28;20517;-47
2022/04/06 00:30:33;;;;;;;37.63;15.27;;;11.20;99.90;;;;;;5012919;28;20140;-48
2022/04/06 00:32:59;;;;;;;31.55;15.18;;;11.10;99.90;;;;;;5012789;28;20381;-49
2022/04/06 00:35:32;;;;;;;33.50;14.20;;;11.10;99.90;;;;;;5012683;28;20042;-48
2022/04/06 00:38:05;;;;;;;41.00;15.55;;;11.00;99.90;;;;;;5012025;28;20053;-46
2022/04/06 00:40:33;;;;;;;32.40;14.30;;;11.20;99.90;;;;;;5012785;28;20508;-46
2022/04/06 00:43:00;;;;;;;36.58;14.75;;;11.00;99.90;;;;;;5012107;28;20042;-49
2022/04/06 00:45:26;;;;;;;35.17;15.15;;;10.90;99.90;;;;;;5012675;28;20473;-46
2022/04/06 00:47:53;;;;;;;39.85;14.93;;;10.90;99.90;;;;;;5010703;28;20041;-46
2022/04/06 00:50:20;;;;;;;33.83;13.77;;;11.00;99.90;;;;;;5012323;28;20041;-45
2022/04/06 00:52:48;;;;;;;35.90;13.85;;;10.90;99.90;;;;;;5012325;28;20044;-46
2022/04/06 00:55:15;;;;;;;33.28;13.95;;;10.90;99.90;;;;;;5012261;28;20034;-49
2022/04/06 00:57:41;;;;;;;30.98;13.15;;;11.00;99.90;;;;;;5012230;28;20038;-48
2022/04/06 01:00:08;;;;;;;33.90;13.57;;;11.00;99.90;;;;;;5012161;28;20057;-49
2022/04/06 01:02:34;;;;;;;36.42;13.63;;;10.90;99.90;;;;;;5012517;28;20519;-49
2022/04/06 01:05:00;;;;;;;33.97;12.90;;;10.90;99.90;;;;;;5012166;28;20030;-47
2022/04/06 01:07:26;;;;;;;31.92;12.60;;;10.90;99.90;;;;;;4994152;28;20397;-49
2022/04/06 01:09:52;;;;;;;30.65;13.02;;;10.90;99.90;;;;;;5011877;28;20042;-47
2022/04/06 01:12:21;;;;;;;28.08;11.98;;;10.90;99.90;;;;;;5011876;28;20084;-49
2022/04/06 01:14:48;;;;;;;36.92;12.45;;;11.00;99.90;;;;;;5011675;28;20104;-47
2022/04/06 01:17:14;;;;;;;32.47;12.65;;;10.80;99.90;;;;;;5011888;28;20088;-50
2022/04/06 01:19:43;;;;;;;32.45;13.57;;;11.00;99.90;;;;;;5011736;28;20068;-48
2022/04/06 01:22:14;;;;;;;31.88;12.00;;;10.90;99.90;;;;;;5009169;28;20045;-47
2022/04/06 01:24:41;;;;;;;35.08;12.90;;;11.00;99.90;;;;;;5011375;28;20069;-50
2022/04/06 01:27:07;;;;;;;29.88;11.45;;;10.90;99.90;;;;;;5010310;28;20472;-49
2022/04/06 01:29:34;;;;;;;36.22;11.40;;;10.90;99.90;;;;;;5010618;28;20038;-47
2022/04/06 01:32:19;;;;;;;28.17;11.50;;;11.00;99.90;;;;;;5011669;28;20065;-51
2022/04/06 01:34:46;;;;;;;24.63;10.45;;;10.90;99.90;;;;;;5009873;28;20367;-50
2022/04/06 01:37:13;;;;;;;29.30;10.40;;;10.80;99.90;;;;;;5010785;28;20049;-48
2022/04/06 01:39:41;;;;;;;32.33;10.40;;;11.00;99.90;;;;;;5011483;28;20096;-48
2022/04/06 01:42:08;;;;;;;27.90;10.32;;;10.90;99.90;;;;;;5011404;28;20041;-46
2022/04/06 01:44:34;;;;;;;28.65;9.07;;;10.90;99.90;;;;;;5009674;28;20054;-50
2022/04/06 01:47:02;;;;;;;28.35;8.88;;;11.00;99.90;;;;;;5011069;28;20527;-47
2022/04/06 01:52:12;;;;;;;;;;;10.80;99.90;;;;;;5011180;28;20045;-50
2022/04/06 01:54:43;;;;;;;23.80;9.00;;;10.70;99.90;;;;;;5011171;28;19925;-46
2022/04/06 01:57:09;;;;;;;26.20;8.52;;;10.70;99.90;;;;;;5009934;28;20042;-50
2022/04/06 01:59:35;;;;;;;31.58;8.00;;;10.80;99.90;;;;;;5010853;28;20092;-49
2022/04/06 02:02:03;;;;;;;18.08;7.68;;;10.70;99.90;;;;;;5010567;28;20037;-48
2022/04/06 02:04:29;;;;;;;25.92;8.32;;;10.70;99.90;;;;;;4993089;28;20049;-48
2022/04/06 02:06:55;;;;;;;23.63;7.88;;;10.80;99.90;;;;;;4992473;28;20038;-46
2022/04/06 02:09:21;;;;;;;25.15;7.85;;;10.80;99.90;;;;;;5011004;28;20037;-48
2022/04/06 02:11:47;;;;;;;21.05;7.05;;;10.60;99.90;;;;;;5010772;28;20037;-45
2022/04/06 02:14:13;;;;;;;30.30;8.80;;;10.70;99.90;;;;;;5010549;28;20267;-51
2022/04/06 02:16:40;;;;;;;27.88;8.60;;;10.80;99.90;;;;;;5010697;28;20037;-47
2022/04/06 02:19:06;;;;;;;23.35;8.68;;;10.70;99.90;;;;;;4992623;28;20116;-45
2022/04/06 02:21:32;;;;;;;29.40;9.27;;;10.70;99.90;;;;;;5010447;28;20175;-46
2022/04/06 02:23:58;;;;;;;26.70;9.55;;;10.70;99.90;;;;;;5010647;28;20385;-47
2022/04/06 02:26:25;;;;;;;28.52;9.40;;;10.80;99.90;;;;;;5010164;28;20037;-50
2022/04/06 02:28:51;;;;;;;33.60;9.25;;;10.70;99.90;;;;;;5010737;28;20045;-50
2022/04/06 02:31:17;;;;;;;26.65;8.48;;;10.90;99.90;;;;;;5010678;28;20485;-47
2022/04/06 02:33:42;;;;;;;31.35;9.57;;;10.80;99.90;;;;;;5010398;28;20045;-52
2022/04/06 02:36:08;;;;;;;29.88;9.52;;;10.90;99.90;;;;;;5009404;28;20029;-49
2022/04/06 02:38:38;;;;;;;27.35;9.23;;;10.70;99.90;;;;;;5010216;28;20139;-46
2022/04/06 02:41:05;;;;;;;30.85;10.15;;;10.90;99.90;;;;;;5008978;28;20081;-47
2022/04/06 02:43:32;;;;;;;38.38;10.55;;;10.80;99.90;;;;;;5010133;28;20058;-46
2022/04/06 02:45:58;;;;;;;31.50;10.30;;;11.00;99.90;;;;;;5010311;28;20046;-49
2022/04/06 02:48:23;;;;;;;45.20;11.15;;;10.80;99.90;;;;;;5010372;28;20507;-46
2022/04/06 02:50:49;;;;;;;35.00;11.30;;;11.10;99.90;;;;;;5010186;28;20374;-47
2022/04/06 02:53:15;;;;;;;37.65;12.85;;;10.90;99.90;;;;;;5010294;28;20527;-47
2022/04/06 02:55:41;;;;;;;38.17;11.90;;;10.90;99.90;;;;;;5009839;28;20030;-45
2022/04/06 02:58:06;;;;;;;32.67;13.07;;;11.00;99.90;;;;;;5009922;28;20092;-46
2022/04/06 03:00:32;;;;;;;36.88;12.70;;;11.10;99.90;;;;;;5010328;28;20045;-48
2022/04/06 03:02:59;;;;;;;39.20;14.18;;;10.90;99.90;;;;;;5008009;28;20432;-47
2022/04/06 03:05:27;;;;;;;38.55;14.18;;;11.20;99.90;;;;;;5010261;28;20045;-48
2022/04/06 03:07:53;;;;;;;39.72;13.07;;;11.00;99.90;;;;;;5009236;28;20524;-47
2022/04/06 03:10:19;;;;;;;46.17;15.43;;;11.00;99.90;;;;;;5010237;28;20034;-48
2022/04/06 03:12:45;;;;;;;35.50;14.23;;;11.00;99.90;;;;;;4992318;28;20030;-45
2022/04/06 03:15:11;;;;;;;41.17;14.32;;;11.10;99.90;;;;;;5010205;28;20096;-47
2022/04/06 03:17:37;;;;;;;36.67;14.35;;;11.10;99.90;;;;;;5009678;28;20508;-46
2022/04/06 03:20:08;;;;;;;36.72;14.60;;;11.10;99.90;;;;;;5010276;28;20042;-48
2022/04/06 03:22:33;;;;;;;36.30;13.70;;;11.00;99.90;;;;;;5009744;28;20544;-47
2022/04/06 03:24:59;;;;;;;36.22;12.80;;;11.10;99.90;;;;;;5010304;28;20165;-46
2022/04/06 03:27:25;;;;;;;34.50;13.10;;;11.20;99.90;;;;;;5010015;28;20370;-49
2022/04/06 03:29:50;;;;;;;33.28;12.75;;;11.20;99.90;;;;;;5010052;28;20038;-47
2022/04/06 03:32:16;;;;;;;31.05;12.85;;;11.00;99.90;;;;;;4992407;28;20566;-47
2022/04/06 03:34:41;;;;;;;33.80;12.68;;;11.20;99.90;;;;;;5010184;28;20030;-49
2022/04/06 03:37:07;;;;;;;30.83;12.40;;;11.00;99.90;;;;;;5009506;28;20038;-48
2022/04/06 03:39:33;;;;;;;34.35;11.57;;;11.10;99.90;;;;;;5010183;28;20132;-48
2022/04/06 03:42:00;;;;;;;32.55;11.35;;;11.00;99.90;;;;;;5009490;28;20041;-45
2022/04/06 03:44:26;;;;;;;29.55;10.80;;;11.00;99.90;;;;;;4991968;28;20065;-47
2022/04/06 03:46:53;;;;;;;26.33;9.48;;;11.10;99.90;;;;;;5009769;28;20404;-47
2022/04/06 03:49:19;;;;;;;27.42;9.75;;;11.10;99.90;;;;;;5007609;28;20128;-48
2022/04/06 03:51:45;;;;;;;29.40;9.10;;;10.90;99.90;;;;;;5009841;28;20061;-45
2022/04/06 03:54:10;;;;;;;24.15;8.90;;;10.80;99.90;;;;;;5013160;28;20033;-44
2022/04/06 03:56:37;;;;;;;25.13;8.88;;;11.00;99.90;;;;;;5013178;28;20037;-46
2022/04/06 03:59:04;;;;;;;20.38;7.68;;;10.90;99.90;;;;;;5013298;28;20400;-47
2022/04/06 04:01:30;;;;;;;29.70;8.32;;;10.80;99.90;;;;;;5013140;28;20541;-45
2022/04/06 04:03:56;;;;;;;27.60;8.93;;;10.80;99.90;;;;;;4994732;28;20144;-46
2022/04/06 04:06:22;;;;;;;21.23;7.57;;;10.80;99.90;;;;;;5011113;28;20037;-51
2022/04/06 04:08:47;;;;;;;25.48;7.88;;;10.80;99.90;;;;;;5013268;28;20113;-45
2022/04/06 04:11:13;;;;;;;20.83;8.00;;;10.70;99.90;;;;;;5013024;28;20125;-46
2022/04/06 04:13:39;;;;;;;20.70;8.20;;;10.60;99.90;;;;;;5011456;28;20033;-47
2022/04/06 04:16:05;;;;;;;24.58;7.55;;;10.70;99.90;;;;;;5013014;28;20045;-48
2022/04/06 04:18:31;;;;;;;22.00;7.53;;;10.60;99.90;;;;;;5012892;28;20350;-46
2022/04/06 04:23:41;;;;;;;;;;;10.50;99.90;;;;;;5006565;28;20132;-48
2022/04/06 04:26:07;;;;;;;22.15;6.45;;;10.60;99.90;;;;;;5012511;28;20051;-49
2022/04/06 04:28:33;;;;;;;14.90;6.22;;;10.60;99.90;;;;;;5012475;28;20125;-46
2022/04/06 04:30:58;;;;;;;15.02;5.63;;;10.60;99.90;;;;;;5012758;28;20041;-47
2022/04/06 04:33:24;;;;;;;22.20;6.05;;;10.40;99.90;;;;;;5010825;28;20033;-46
2022/04/06 04:35:50;;;;;;;20.35;6.25;;;10.60;99.90;;;;;;5012316;28;20072;-49
2022/04/06 04:38:15;;;;;;;18.67;6.07;;;10.60;99.90;;;;;;5012220;28;20034;-45
2022/04/06 04:40:41;;;;;;;17.30;5.85;;;10.50;99.90;;;;;;5012724;28;20050;-45
2022/04/06 04:43:07;;;;;;;15.85;6.05;;;10.50;99.90;;;;;;5012318;28;20058;-48
2022/04/06 04:45:32;;;;;;;21.08;6.72;;;10.50;99.90;;;;;;5012076;28;20505;-44
2022/04/06 04:47:59;;;;;;;15.60;6.45;;;10.30;99.90;;;;;;5012401;28;20034;-47
2022/04/06 04:50:25;;;;;;;19.75;6.78;;;10.40;99.90;;;;;;5012072;28;20072;-46
2022/04/06 04:52:50;;;;;;;20.70;6.53;;;10.40;99.90;;;;;;5012084;28;20116;-48
2022/04/06 04:55:16;;;;;;;20.20;6.15;;;10.50;99.90;;;;;;4994489;28;20073;-47
2022/04/06 04:57:42;;;;;;;23.30;6.20;;;10.50;99.90;;;;;;5012359;28;20472;-48
2022/04/06 05:00:08;;;;;;;16.50;6.93;;;10.40;99.90;;;;;;4993494;28;20045;-46
2022/04/06 05:02:36;;;;;;;20.75;7.07;;;10.40;99.90;;;;;;5012195;28;20045;-46
2022/04/06 05:05:03;;;;;;;19.45;6.90;;;10.30;99.90;;;;;;5011893;28;20111;-49
2022/04/06 05:07:29;;;;;;;17.73;6.45;;;10.40;99.90;;;;;;5011600;28;20030;-45
2022/04/06 05:09:54;;;;;;;25.13;5.70;;;10.40;99.90;;;;;;5012153;28;20116;-47
2022/04/06 05:12:20;;;;;;;17.30;6.40;;;10.40;99.90;;;;;;5012107;28;20060;-46
2022/04/06 05:14:46;;;;;;;16.00;5.50;;;10.50;99.90;;;;;;5011697;28;20588;-47
2022/04/06 05:17:12;;;;;;;14.40;5.93;;;10.40;99.90;;;;;;5011688;28;20129;-47
2022/04/06 05:19:38;;;;;;;22.08;5.07;;;10.30;99.90;;;;;;5010120;28;20038;-47
2022/04/06 05:22:04;;;;;;;19.00;5.55;;;10.30;99.90;;;;;;5011508;28;20038;-49
2022/04/06 05:24:30;;;;;;;16.02;4.90;;;10.40;99.90;;;;;;5011772;28;20037;-46
2022/04/06 05:26:55;;;;;;;16.83;5.07;;;10.20;99.90;;;;;;5011518;28;20045;-46
2022/04/06 05:29:21;;;;;;;16.17;4.68;;;10.20;99.90;;;;;;4993838;28;20476;-45
2022/04/06 05:31:47;;;;;;;14.65;4.35;;;10.20;99.90;;;;;;5011402;28;20045;-46
2022/04/06 05:34:12;;;;;;;12.48;4.03;;;10.20;99.90;;;;;;5011586;28;20034;-46
2022/04/06 05:36:38;;;;;;;14.63;3.80;;;10.20;99.90;;;;;;5008562;28;20034;-47
2022/04/06 05:39:04;;;;;;;15.68;3.85;;;10.40;99.90;;;;;;5011230;28;20065;-47
2022/04/06 05:41:30;;;;;;;12.63;3.97;;;10.40;99.90;;;;;;5011372;28;20050;-46
2022/04/06 05:43:56;;;;;;;9.52;3.47;;;10.20;99.90;;;;;;5011011;28;20073;-50
2022/04/06 05:46:21;;;;;;;12.45;3.50;;;10.30;99.90;;;;;;5010776;28;20500;-47
2022/04/06 05:48:47;;;;;;;15.10;3.33;;;10.30;99.90;;;;;;5011042;28;20038;-47
2022/04/06 05:51:13;;;;;;;12.07;3.13;;;10.30;99.90;;;;;;5011306;28;20038;-48
2022/04/06 05:53:39;;;;;;;12.80;3.20;;;10.30;99.90;;;;;;5010821;28;20038;-48
2022/04/06 05:56:05;;;;;;;11.60;3.40;;;10.30;99.90;;;;;;5010629;28;20038;-48
2022/04/06 05:58:31;;;;;;;15.20;3.53;;;10.10;99.90;;;;;;5011022;28;20513;-47
2022/04/06 06:00:56;;;;;;;13.50;3.65;;;10.30;99.90;;;;;;5010864;28;20088;-46
2022/04/06 06:03:22;;;;;;;10.95;2.75;;;10.10;99.90;;;;;;5008227;28;20041;-46
2022/04/06 06:05:47;;;;;;;14.40;2.63;;;10.10;99.90;;;;;;5010347;28;20088;-47
2022/04/06 06:08:13;;;;;;;8.90;2.65;;;10.30;99.90;;;;;;5010381;28;20042;-49
2022/04/06 06:10:39;;;;;;;9.35;2.28;;;10.30;99.90;;;;;;5010791;28;20046;-46
2022/04/06 06:13:04;;;;;;;10.00;2.50;;;10.00;99.90;;;;;;5010906;28;20044;-47
2022/04/06 06:15:30;;;;;;;10.60;2.30;;;10.20;99.90;;;;;;5010099;28;20465;-46
2022/04/06 06:17:55;;;;;;;11.20;2.72;;;10.10;99.90;;;;;;5010380;28;20042;-45
2022/04/06 06:20:21;;;;;;;11.13;2.58;;;10.10;99.90;;;;;;4992761;28;20089;-50
2022/04/06 06:22:47;;;;;;;13.25;3.20;;;10.10;99.90;;;;;;5010589;28;20030;-49
2022/04/06 06:25:13;;;;;;;11.95;3.22;;;10.20;99.90;;;;;;5010761;28;20053;-47
2022/04/06 06:27:40;;;;;;;15.40;4.22;;;10.10;99.90;;;;;;5010600;28;20038;-50
2022/04/06 06:30:07;;;;;;;15.38;3.38;;;10.20;99.90;;;;;;5010153;28;20544;-45
2022/04/06 06:32:33;;;;;;;16.95;4.18;;;10.20;99.90;;;;;;5010462;28;20037;-47
2022/04/06 06:34:58;;;;;;;17.25;3.97;;;10.00;99.90;;;;;;5010170;28;20037;-47
2022/04/06 06:37:24;;;;;;;15.95;3.55;;;10.10;99.90;;;;;;4992355;28;20053;-46
2022/04/06 06:39:52;;;;;;;14.13;3.15;;;10.20;99.90;;;;;;5008014;28;20044;-48
2022/04/06 06:42:18;;;;;;;17.83;3.45;;;10.40;99.90;;;;;;5010270;28;20041;-47
2022/04/06 06:44:44;;;;;;;13.93;3.22;;;10.40;99.90;;;;;;5008988;28;20060;-49
2022/04/06 06:47:10;;;;;;;13.05;3.30;;;10.20;99.90;;;;;;5008777;28;20057;-45
2022/04/06 06:49:35;;;;;;;18.67;3.70;;;10.10;99.90;;;;;;4991573;28;20060;-46
2022/04/06 06:52:01;;;;;;;13.55;3.50;;;10.30;99.90;;;;;;5002444;28;20097;-46
2022/04/06 06:54:27;;;;;;;13.80;3.58;;;10.40;99.90;;;;;;4999077;28;20109;-46
2022/04/06 06:56:52;;;;;;;13.98;3.03;;;10.40;99.90;;;;;;4991404;28;20037;-48
2022/04/06 06:59:18;;;;;;;17.05;3.35;;;10.40;99.90;;;;;;4993498;28;20033;-45
2022/04/06 07:01:43;;;;;;;17.73;3.80;;;10.50;99.90;;;;;;4988654;28;20114;-47
2022/04/06 07:04:09;;;;;;;15.57;3.63;;;10.50;99.90;;;;;;4993765;28;20092;-46
2022/04/06 07:06:35;;;;;;;21.48;4.18;;;10.50;99.90;;;;;;5000257;28;20030;-45
2022/04/06 07:09:01;;;;;;;15.75;3.00;;;10.30;99.90;;;;;;4982158;28;20049;-46
2022/04/06 07:11:26;;;;;;;19.33;3.55;;;10.30;99.90;;;;;;5000070;28;20041;-45
2022/04/06 07:13:52;;;;;;;14.05;3.85;;;10.40;99.90;;;;;;4982425;28;20038;-46
2022/04/06 07:16:19;;;;;;;15.93;3.50;;;10.60;99.90;;;;;;5001279;28;20030;-50
2022/04/06 07:18:44;;;;;;;13.98;3.80;;;10.60;99.90;;;;;;5001931;28;20068;-48
2022/04/06 07:21:10;;;;;;;15.10;3.92;;;10.50;99.90;;;;;;4998876;28;20077;-47
2022/04/06 07:23:37;;;;;;;13.20;4.00;;;10.60;99.90;;;;;;4998114;28;20042;-46
2022/04/06 07:26:03;;;;;;;19.65;4.45;;;10.60;99.90;;;;;;4998238;28;20052;-47
2022/04/06 07:28:28;;;;;;;17.23;4.20;;;10.70;99.90;;;;;;5005257;28;20042;-44
2022/04/06 07:30:54;;;;;;;16.25;4.43;;;10.40;99.90;;;;;;5003085;28;20060;-48
2022/04/06 07:33:20;;;;;;;18.77;4.85;;;10.70;99.90;;;;;;5006622;28;20124;-48
2022/04/06 07:35:46;;;;;;;17.92;5.13;;;10.50;99.90;;;;;;5002988;28;20413;-49
2022/04/06 07:38:14;;;;;;;13.65;4.55;;;10.80;99.90;;;;;;5002989;28;20050;-47
2022/04/06 07:40:40;;;;;;;13.85;4.28;;;10.70;99.90;;;;;;4994965;28;20034;-45
2022/04/06 07:43:07;;;;;;;15.13;5.07;;;10.60;99.90;;;;;;5002315;28;20054;-47
2022/04/06 07:45:33;;;;;;;21.98;5.32;;;10.60;99.90;;;;;;5002688;28;20049;-47
2022/04/06 07:47:59;;;;;;;15.20;4.60;;;10.80;99.90;;;;;;5003584;28;20457;-46
2022/04/06 07:50:24;;;;;;;20.90;5.22;;;10.80;99.90;;;;;;4997858;28;20053;-46
2022/04/06 07:52:50;;;;;;;18.40;5.00;;;10.90;99.90;;;;;;5001479;28;20104;-49
2022/04/06 07:55:17;;;;;;;14.10;5.18;;;10.90;99.90;;;;;;5002031;28;20495;-45
2022/04/06 07:57:42;;;;;;;19.90;4.82;;;10.70;99.90;;;;;;5002503;28;20046;-46
2022/04/06 08:00:10;;;;;;;16.15;4.50;;;10.80;99.90;;;;;;4995590;28;20038;-47
2022/04/06 08:02:36;;;;;;;17.30;5.07;;;10.70;99.90;;;;;;4992595;28;20045;-46
2022/04/06 08:05:04;;;;;;;20.92;4.90;;;10.80;99.90;;;;;;4987320;28;20041;-50
2022/04/06 08:07:31;;;;;;;16.15;4.32;;;10.90;99.90;;;;;;4978695;28;20034;-47
2022/04/06 08:09:56;;;;;;;18.05;5.03;;;10.80;99.90;;;;;;5002880;28;20061;-50
2022/04/06 08:12:22;;;;;;;13.65;5.05;;;10.90;99.90;;;;;;5002123;28;20061;-47
2022/04/06 08:14:48;;;;;;;14.98;4.32;;;10.70;99.90;;;;;;4996682;28;20042;-48
2022/04/06 08:17:15;;;;;;;15.98;3.95;;;10.70;99.90;;;;;;4995632;28;20358;-47
2022/04/06 08:19:41;;;;;;;13.40;4.03;;;10.80;99.90;;;;;;4998837;28;20042;-49
2022/04/06 08:22:07;;;;;;;14.35;4.18;;;10.80;99.90;;;;;;5001106;28;20044;-47
2022/04/06 08:24:33;;;;;;;16.15;4.15;;;10.90;99.90;;;;;;5004024;28;20092;-48
2022/04/06 08:26:59;;;;;;;21.95;4.97;;;11.10;99.90;;;;;;5003068;28;20037;-46
2022/04/06 08:29:25;;;;;;;16.95;4.28;;;11.10;99.90;;;;;;5003464;28;20030;-46
2022/04/06 08:31:50;;;;;;;13.18;3.45;;;10.80;99.90;;;;;;5002014;28;20492;-46
2022/04/06 08:34:16;;;;;;;16.23;4.00;;;10.70;99.90;;;;;;5003117;28;20117;-46
2022/04/06 08:36:43;;;;;;;14.48;3.55;;;10.80;99.90;;;;;;5001173;28;20117;-47
2022/04/06 08:39:09;;;;;;;13.57;3.50;;;10.80;99.90;;;;;;5000174;28;20033;-47
2022/04/06 08:41:35;;;;;;;19.85;3.67;;;10.80;99.90;;;;;;4996027;28;20041;-49
2022/04/06 08:44:01;;;;;;;17.10;4.10;;;10.90;99.90;;;;;;5001843;28;20062;-46
2022/04/06 08:46:34;;;;;;;12.95;3.75;;;10.80;99.90;;;;;;5001531;28;20046;-47
2022/04/06 08:49:01;;;;;;;16.38;4.00;;;10.80;99.90;;;;;;5002346;28;20050;-46
2022/04/06 08:51:28;;;;;;;13.05;3.80;;;10.80;99.90;;;;;;5001254;28;20034;-49
2022/04/06 08:53:54;;;;;;;17.25;4.15;;;10.80;99.90;;;;;;5002172;28;20053;-49
2022/04/06 08:56:21;;;;;;;11.82;4.05;;;10.90;99.90;;;;;;4999704;28;20409;-50
2022/04/06 08:58:47;;;;;;;12.43;3.83;;;11.00;99.90;;;;;;5003001;28;20045;-46
2022/04/06 09:01:13;;;;;;;11.73;3.67;;;10.90;99.90;;;;;;5002606;28;20397;-47
2022/04/06 09:03:39;;;;;;;15.40;4.10;;;11.10;99.90;;;;;;5002763;28;20046;-47
2022/04/06 09:06:07;;;;;;;12.55;3.75;;;11.00;99.90;;;;;;4991211;28;20499;-46
2022/04/06 09:08:45;;;;;;;13.60;3.92;;;11.10;99.90;;;;;;5001649;28;20103;-46
2022/04/06 09:11:19;;;;;;;11.43;4.05;;;11.20;99.90;;;;;;4998940;28;20052;-46
2022/04/06 09:13:46;;;;;;;13.75;5.00;;;11.30;99.90;;;;;;5000943;28;20042;-47
2022/04/06 09:16:17;;;;;;;16.05;4.53;;;11.30;99.90;;;;;;5002188;28;20029;-46
2022/04/06 09:18:44;;;;;;;10.15;4.18;;;11.20;99.90;;;;;;4994833;28;20034;-47
2022/04/06 09:21:13;;;;;;;14.32;5.03;;;11.10;99.90;;;;;;5002082;28;20512;-45
2022/04/06 09:23:39;;;;;;;10.45;5.25;;;11.20;99.90;;;;;;5002875;28;20034;-45
2022/04/06 09:26:11;;;;;;;15.20;5.30;;;11.20;99.90;;;;;;4999785;28;20088;-48
2022/04/06 09:28:41;;;;;;;15.43;5.18;;;11.40;99.90;;;;;;5002165;28;20049;-43
2022/04/06 09:31:08;;;;;;;16.27;5.80;;;11.40;99.90;;;;;;5001003;28;20062;-45
2022/04/06 09:33:39;;;;;;;16.65;5.95;;;11.30;99.90;;;;;;4999976;28;20034;-44
2022/04/06 09:36:29;;;;;;;13.48;6.43;;;11.40;99.90;;;;;;5000482;28;20030;-44
2022/04/06 09:38:55;;;;;;;16.40;5.95;;;11.50;99.90;;;;;;5000045;28;20045;-43
2022/04/06 09:41:21;;;;;;;11.15;5.70;;;11.50;99.90;;;;;;4998627;28;20079;-44
2022/04/06 09:43:48;;;;;;;18.35;6.45;;;11.50;99.90;;;;;;5000856;28;20149;-46
2022/04/06 09:49:19;;;;;;;14.98;6.40;;;11.60;99.90;;;;;;4998572;28;20573;-45
2022/04/06 09:51:52;;;;;;;13.30;5.80;;;11.50;99.90;;;;;;4997735;28;20055;-44
2022/04/06 09:54:18;;;;;;;15.75;6.32;;;11.40;99.90;;;;;;5001415;28;20034;-45
2022/04/06 09:56:44;;;;;;;17.10;6.80;;;11.50;99.90;;;;;;4999889;28;20042;-46
2022/04/06 09:59:12;;;;;;;17.85;6.95;;;11.60;99.90;;;;;;4984143;28;21402;-46
2022/04/06 10:01:58;;;;;;;11.45;6.60;;;11.70;99.90;;;;;;5001867;28;20117;-44
2022/04/06 10:04:26;;;;;;;13.40;6.32;;;11.60;99.90;;;;;;4984029;28;20041;-45
2022/04/06 10:06:52;;;;;;;15.25;7.10;;;11.50;99.90;;;;;;5000987;28;20037;-46
2022/04/06 10:09:18;;;;;;;18.35;7.38;;;11.70;99.90;;;;;;5000491;28;20041;-46
2022/04/06 10:11:45;;;;;;;19.50;6.95;;;11.70;99.90;;;;;;4998264;28;20041;-47
2022/04/06 10:14:11;;;;;;;19.20;6.82;;;11.70;99.90;;;;;;4991767;28;20144;-47
2022/04/06 10:16:38;;;;;;;15.40;6.90;;;11.70;99.90;;;;;;4997559;28;20038;-46
2022/04/06 10:19:11;;;;;;;20.67;6.95;;;11.60;99.90;;;;;;4999161;28;20053;-46
2022/04/06 10:21:56;;;;;;;16.23;6.55;;;11.70;99.90;;;;;;4997467;28;20065;-46
2022/04/06 10:24:40;;;;;;;14.43;6.70;;;11.60;99.90;;;;;;4999353;28;20037;-48
2022/04/06 10:27:23;;;;;;;13.95;6.70;;;11.80;99.90;;;;;;4999252;28;20370;-45
2022/04/06 10:30:18;;;;;;;17.73;7.53;;;11.70;99.90;;;;;;4996295;28;20184;-45
2022/04/06 10:32:48;;;;;;;16.98;7.75;;;11.60;99.90;;;;;;4997987;28;20372;-46
2022/04/06 10:35:22;;;;;;;16.98;7.43;;;11.70;99.90;;;;;;4996716;28;20038;-47
2022/04/06 10:37:52;;;;;;;18.58;7.85;;;11.80;99.90;;;;;;4990840;28;20042;-47
2022/04/06 10:40:17;;;;;;;13.43;7.47;;;11.80;99.90;;;;;;5000283;28;20502;-48
2022/04/06 10:42:45;;;;;;;15.32;7.70;;;11.60;99.90;;;;;;4999823;28;20033;-47
2022/04/06 10:45:27;;;;;;;14.65;7.70;;;11.80;99.90;;;;;;5001283;28;20373;-46
2022/04/06 10:48:11;;;;;;;17.23;8.18;;;11.60;99.90;;;;;;4999228;28;20050;-46
2022/04/06 10:50:37;;;;;;;;;;;11.70;99.90;;;;;;5000532;28;20046;-44
2022/04/06 10:53:18;;;;;;;15.55;8.35;;;11.70;99.90;;;;;;4998390;28;20005;-48
2022/04/06 10:55:57;;;;;;;18.20;9.15;;;11.70;99.90;;;;;;4994531;28;20042;-45
2022/04/06 10:58:24;;;;;;;18.27;8.90;;;11.70;99.90;;;;;;4997340;28;20045;-47
2022/04/06 11:01:16;;;;;;;21.33;9.48;;;11.90;99.90;;;;;;4983718;28;20045;-48
2022/04/06 11:03:53;;;;;;;16.90;8.35;;;11.80;99.90;;;;;;5005737;28;20062;-46
2022/04/06 11:07:03;;;;;;;17.02;9.40;;;12.00;99.90;;;;;;5005142;28;20038;-45
2022/04/06 11:12:33;;;;;;;18.75;9.57;;;12.00;99.90;;;;;;5006338;28;20384;-47
2022/04/06 11:14:59;;;;;;;21.38;10.02;;;12.20;99.90;;;;;;5009155;28;20439;-49
2022/04/06 11:17:32;;;;;;;19.48;9.80;;;12.20;99.90;;;;;;5004222;28;20038;-47
2022/04/06 11:19:59;;;;;;;17.83;9.88;;;12.60;99.90;;;;;;5008299;28;20556;-47
2022/04/06 11:22:24;;;;;;;19.48;10.23;;;12.40;99.90;;;;;;5008407;28;20069;-47
2022/04/06 11:24:51;;;;;;;21.52;9.93;;;12.40;99.90;;;;;;5004972;28;20042;-50
2022/04/06 11:27:32;;;;;;;19.95;10.38;;;12.60;99.90;;;;;;5010049;28;20483;-51
2022/04/06 11:30:04;;;;;;;18.73;10.68;;;12.40;99.90;;;;;;5009792;28;20037;-45
2022/04/06 11:32:30;;;;;;;20.02;11.05;;;12.30;99.90;;;;;;5009327;28;20053;-48
2022/04/06 11:35:09;;;;;;;15.30;8.80;;;12.50;99.90;;;;;;5011700;28;20037;-48
2022/04/06 11:37:49;;;;;;;21.15;11.95;;;12.30;99.90;;;;;;4999292;28;20041;-46
2022/04/06 11:40:20;;;;;;;20.05;12.02;;;12.30;99.90;;;;;;4999147;28;20052;-46
2022/04/06 11:42:53;;;;;;;21.70;12.48;;;12.60;99.90;;;;;;4988061;28;20577;-48
2022/04/06 11:45:20;;;;;;;28.30;13.80;;;12.70;99.90;;;;;;4993083;28;20108;-48
2022/04/06 11:47:55;;;;;;;22.40;12.93;;;13.00;99.90;;;;;;5005209;28;20428;-50
2022/04/06 11:50:27;;;;;;;27.63;11.93;;;13.50;99.90;;;;;;5007631;28;20046;-47
2022/04/06 11:52:53;;;;;;;17.60;10.68;;;13.50;99.90;;;;;;5010824;28;20495;-46
2022/04/06 11:55:19;;;;;;;20.60;10.57;;;13.10;99.90;;;;;;5008392;28;20046;-46
2022/04/06 11:57:48;;;;;;;25.60;10.70;;;13.10;99.90;;;;;;5008830;28;20042;-47
2022/04/06 12:00:16;;;;;;;22.73;10.25;;;13.20;99.90;;;;;;5010622;28;20532;-46
2022/04/06 12:02:49;;;;;;;19.23;9.77;;;12.90;99.90;;;;;;5010343;28;20048;-46
2022/04/06 12:05:15;;;;;;;15.48;8.70;;;13.00;99.90;;;;;;5012933;28;20551;-48
2022/04/06 12:07:40;;;;;;;17.88;8.88;;;12.90;99.90;;;;;;5012674;28;20065;-49
2022/04/06 12:10:06;;;;;;;17.88;9.15;;;12.80;99.90;;;;;;5012876;28;20030;-45
2022/04/06 12:12:36;;;;;;;17.73;9.20;;;12.80;99.90;;;;;;5012527;28;20037;-45
2022/04/06 12:15:03;;;;;;;18.73;10.40;;;12.60;99.90;;;;;;5012570;28;20034;-46
2022/04/06 12:17:29;;;;;;;16.35;9.05;;;12.60;99.90;;;;;;5013120;28;20044;-48
2022/04/06 12:19:55;;;;;;;17.67;9.68;;;12.90;99.90;;;;;;5012837;28;20544;-49
2022/04/06 12:22:26;;;;;;;23.52;10.43;;;12.80;99.90;;;;;;5012888;28;20049;-46
2022/04/06 12:24:52;;;;;;;17.55;9.48;;;12.90;99.90;;;;;;5004483;28;20153;-48
2022/04/06 12:27:28;;;;;;;18.60;9.57;;;13.10;99.90;;;;;;5003315;28;20509;-47
2022/04/06 12:30:10;;;;;;;18.67;9.13;;;12.70;99.90;;;;;;5002764;28;20038;-47
2022/04/06 12:32:45;;;;;;;17.83;9.43;;;12.90;99.90;;;;;;4998994;28;20294;-48
2022/04/06 12:35:24;;;;;;;22.88;9.68;;;12.80;99.90;;;;;;4997283;28;20544;-50
2022/04/06 12:37:50;;;;;;;15.68;8.77;;;13.00;99.90;;;;;;5002031;28;22861;-46
2022/04/06 12:40:23;;;;;;;14.90;8.57;;;13.10;99.90;;;;;;5000157;28;20033;-49
2022/04/06 12:42:50;;;;;;;16.85;8.13;;;13.30;99.90;;;;;;5001525;28;20440;-49
2022/04/06 12:45:18;;;;;;;17.20;8.55;;;12.90;99.90;;;;;;5002047;28;20054;-46
2022/04/06 12:47:45;;;;;;;13.55;8.43;;;12.90;99.90;;;;;;5002052;28;20050;-46
2022/04/06 12:50:36;;;;;;;13.38;8.55;;;12.90;99.90;;;;;;4985818;28;20026;-49